x

Jonesport, Me - 20 Nm Se Of Jonesport, Me (44027) Wave Buoy

11:50pm - Tue 21st Oct 2014 All times are ADT. -3 hours from GMT.

  • Sig Wave height 3.6ft
  • Peak Period 4s
  • Average Period 4s
  • Wind
    22mph, 27mph gusts
  • Sea Temp 56°f
  • Air Temp 55°f
  • Sea Pressure 1019.5mb
  • Jonesport, Me - 20 Nm Se Of Jonesport, Me
  • Jonesport, Me - 20 Nm Se Of Jonesport, Me

More Historic Weather Station data

Upgrade to MSW Pro to gain access to the past 30 days of data for over 8000 Wavebouys and Weather Stations around the globe.

Join Pro

Comparision Forecast

View Surf forecast
   
Tue 10/21 11:50pm 3.5ft 4s 4s 22 27 mph 1019.5mb 56f 55f
10:50pm 3ft 4s 4s 22 27 mph 1019.3mb 56f 55f
9:50pm 3ft 4s 4s 20 25 mph 1019.5mb 56f 55f
8:50pm 3ft 3s 4s 18 20 mph 1019.1mb 56f 55f
7:50pm 3ft 5s 4s 16 20 mph 1018.9mb 56f 56f
6:50pm 2.5ft 5s 4s 16 18 mph 1019mb 56f 56f
5:50pm 2.5ft 6s 4s 16
mph
1019mb 56f 55f
4:50pm 2.5ft 6s 4s 11 16 mph 1018.8mb 56f 56f
3:50pm 2.5ft 7s 5s 11 13 mph 1018.2mb 56f 56f
2:50pm 2.5ft 6s 5s 7 9 mph 1018.4mb 56f 56f
1:50pm 2.5ft 7s 5s 9 11 mph 1018.8mb 56f 56f
12:50pm 2.5ft 6s 5s 9 11 mph 1018.9mb 56f 56f
11:50am 2.5ft 6s 4s 13 16 mph 1018.7mb 56f 54f
10:50am 2.5ft 5s 4s 13 16 mph 1018.4mb 56f 53f
9:50am 2.5ft 8s 5s 13 18 mph 1017.9mb 56f 52f
8:50am 2.5ft 6s 5s 13 16 mph 1017.6mb 56f 52f
7:50am 3.5ft 6s 5s 9 11 mph 1017.4mb 56f 52f
6:50am 3.5ft 6s 5s 7 9 mph 1017.3mb 56f 52f
5:50am  -   -   -  4 7 mph 1016.8mb 56f 53f
4:50am 3.5ft 6s 5s 11 13 mph 1016.8mb 56f 55f
3:50am 3.5ft 6s 5s 13 16 mph 1016.3mb 56f 54f
2:50am 3.5ft 6s 5s 13 16 mph 1016.1mb 56f 54f
1:50am 3.5ft 6s 5s 13 16 mph 1015.6mb 56f 54f
12:50am 3.5ft 6s 4s 16 18 mph 1015.1mb 56f 53f
Mon 10/20 11:50pm 3.5ft 6s 4s 16 20 mph 1014.8mb 56f 52f
10:50pm 3.5ft 6s 4s 16 18 mph 1014.4mb 56f 52f
9:50pm 4ft 6s 4s 18 22 mph 1014.1mb 56f 51f
8:50pm 4.5ft 6s 4s 20 22 mph 1013.6mb 56f 51f
7:50pm 4.5ft 6s 4s 20 22 mph 1013.4mb 56f 50f
6:50pm 4.5ft 6s 4s 18 20 mph 1013mb 56f 49f
5:50pm 4.5ft 6s 5s 18 22 mph 1012.6mb 56f 49f
4:50pm 4.5ft 5s 4s 20 25 mph 1012.4mb 56f 48f
3:50pm 4ft 5s 5s 20 25 mph 1012.2mb 56f 47f
2:50pm 4.5ft 6s 5s 18 22 mph 1012.3mb 56f 46f
1:50pm 3.5ft 6s 4s 20 25 mph 1012.3mb 56f 46f
12:50pm 4ft 6s 5s 16 20 mph 1012.8mb 56f 45f
11:50am 5ft 7s 5s 18 22 mph 1012.7mb 56f 44f
10:50am 5ft 5s 5s 22 27 mph 1012.6mb 56f 43f
9:50am 5ft 5s 4s 22 31 mph 1011.6mb 56f 43f
8:50am 5.5ft 6s 5s 25 31 mph 1011.1mb 56f 44f
7:50am 5ft 5s 5s 27 36 mph 1010mb 56f 43f
6:50am 4.5ft 5s 4s 25 31 mph 1009.7mb 56f 44f
5:50am 4.5ft 5s 4s 25 31 mph 1008.7mb 56f 45f
4:50am 3.5ft 5s 4s 25 29 mph 1008mb 56f 46f
3:50am 3.5ft 5s 4s 25 27 mph 1007.6mb 56f 45f
2:50am 3.5ft 11s 4s 22 29 mph 1007.3mb 57f 46f
12:50am 4.5ft 11s 4s 22 27 mph 1006.6mb 56f 46f
Sun 10/19 11:50pm 4.5ft 4s 4s 22 29 mph 1006.6mb 56f 47f
10:50pm 5ft 5s 4s 25 31 mph 1006.1mb 56f 46f
9:50pm 5.5ft 5s 5s 22 29 mph 1006.4mb 56f 46f
8:50pm 5ft 5s 5s 27 31 mph 1005.6mb 57f 46f
7:50pm 4.5ft 12s 5s 25 31 mph 1005.4mb 57f 48f
6:50pm 4.5ft 12s 5s 18 22 mph 1005.8mb 57f 49f
5:50pm 5ft 13s 6s 22 27 mph 1004.9mb 57f 49f
4:50pm 4.5ft 13s 7s 20 25 mph 1004.9mb 57f 49f
3:50pm 5ft 10s 7s 13 16 mph 1005mb 57f 50f
2:50pm 5.5ft 12s 7s 11 16 mph 1004.2mb 57f 49f
1:50pm 5ft 13s 7s 13 18 mph 1003.5mb 57f 49f
12:50pm 5ft 11s 7s 16 20 mph 1004.1mb 57f 49f
11:50am 5ft 11s 6s 16 18 mph 1004.4mb 57f 49f
10:50am 6ft 12s 6s 18 22 mph 1003.6mb 57f 49f
9:50am 6.5ft 13s 7s 18 22 mph 1003mb 57f 50f
8:50am 6.5ft 13s 6s 18 22 mph 1002mb 57f 51f
7:50am 6ft 15s 7s 22 25 mph 1000.7mb 57f 54f
6:50am 6ft 15s 8s 16 20 mph 1000.1mb 57f 56f
5:50am 6ft 14s 7s 13 16 mph 999.2mb 57f 56f
4:50am 6.5ft 14s 8s 13 16 mph 998.7mb 57f 56f
3:50am 6ft 10s 8s 11 13 mph 998.3mb 57f 56f
2:50am 7ft 15s 9s 11 13 mph 997.9mb 57f 57f
1:50am 7ft 15s 9s 11 13 mph 997.7mb 57f 58f
12:50am 7ft 15s 9s 11 13 mph 997.6mb 57f 58f
Sat 10/18 11:50pm 6ft 11s 8s 13 16 mph 997.9mb 57f 59f
10:50pm 6ft 16s 8s 11 13 mph 998.1mb 57f 59f
9:50pm 6ft 10s 8s 11 13 mph 998.5mb 57f 59f
8:50pm 6ft 10s 8s 11 16 mph 998.6mb 57f 59f
7:50pm 6ft 10s 7s 11 13 mph 998.7mb 57f 59f
6:50pm 6ft 8s 7s 9 11 mph 999mb 57f 58f
5:50pm 7ft 14s 8s 9 11 mph 999.4mb 57f 59f
4:50pm 7.5ft 9s 8s 11 13 mph 1000mb 57f 59f
3:50pm 7ft 10s 8s 11 13 mph 1000.3mb 57f 59f
2:50pm 7.5ft 10s 8s 11 16 mph 1000.9mb 57f 59f
1:50pm 7ft 10s 8s 11 13 mph 1001.4mb 56f 59f
12:50pm 7ft 11s 8s 13 16 mph 1002mb 56f 59f
11:50am 6.5ft 10s 7s 13 18 mph 1002.4mb 56f 59f
10:50am 7ft 11s 7s 13 16 mph 1002.6mb 56f 59f
9:50am 8ft 11s 8s 13 18 mph 1003mb 56f 58f
8:50am 8ft 11s 7s 13 18 mph 1003.1mb 56f 58f
7:50am 7.5ft 10s 7s 13 16 mph 1003mb 56f 58f
6:50am 7ft 11s 7s 13 16 mph 1003.1mb 56f 58f
5:50am 8ft 10s 7s 13 16 mph 1003.3mb 56f 58f
4:50am 9ft 10s 7s 16 18 mph 1003.6mb 56f 58f